»·PEaware :: N16RD KBUR-KLAS

N16RD :: KBUR-KLAS

FLIGHT INFORMATION

Flight Status: Arrived
Operator: Privately registered:
United States
More flights under this callsign
Pilot: Brett B. (12105)
Aircraft: BEECH AIRCRAFT BARON
(BE58)
More flights by this aircraft type
Origin: KBUR Bob Hope-Burbank
United States
Destination: KLAS McCarran Intl
United States
More flights between these airports :: More routes between these airports
Route: +VNY3 DAG CRESO4
File this flight plan on PilotEdge
Remarks: I-5 Test
Altitude:
(Current/Filed)
13,000ft
Speed:
(Current/Filed)
250kts
Departed: 21-Oct-17 06:16 PM
Arrived: 21-Oct-17 08:55 PM
Distance/Time
Traveled:
194nm/2:39
Distance/Time
To Go:
Arrived

Flight Plot

Page will automatically refresh every two minutes.

Flight plan parsing failed; only flown route is shown


Map Options




Map Legend


Flown Route
Filed Route
Departure Airport
Arrival Airport
Navaid (VOR, NDB)
Fix

Horizontal Profiles

Position Reports

Time Latitude Longitude Heading Altitude Ground
Speed
21-Oct-17 18:20 34.383878 -118.557948 340 8441ft 67kts
21-Oct-17 18:21 34.383878 -118.557948 340 8441ft 67kts
21-Oct-17 18:22 34.383878 -118.557948 340 8441ft 67kts
21-Oct-17 18:23 34.383878 -118.557948 340 8441ft 67kts
21-Oct-17 18:24 34.383878 -118.557948 340 8441ft 67kts
21-Oct-17 18:25 34.383878 -118.557948 340 8441ft 67kts
21-Oct-17 18:26 34.383878 -118.557948 340 8441ft 67kts
21-Oct-17 18:27 34.383878 -118.557948 340 8441ft 67kts
21-Oct-17 18:28 34.383878 -118.557948 340 8441ft 67kts
21-Oct-17 18:29 34.383878 -118.557948 340 8441ft 67kts
21-Oct-17 18:30 34.383878 -118.557948 340 8441ft 67kts
21-Oct-17 18:31 34.383878 -118.557948 340 8441ft 67kts
21-Oct-17 18:32 34.383878 -118.557948 340 8441ft 67kts
21-Oct-17 18:33 34.383878 -118.557948 340 8441ft 67kts
21-Oct-17 18:34 34.383878 -118.557948 340 8441ft 67kts
21-Oct-17 18:35 34.383878 -118.557948 340 8441ft 67kts
21-Oct-17 18:36 34.383878 -118.557948 340 8441ft 67kts
21-Oct-17 18:37 34.383878 -118.557948 340 8441ft 67kts
21-Oct-17 18:38 34.383878 -118.557948 340 8441ft 67kts
21-Oct-17 18:39 34.383878 -118.557948 340 8441ft 67kts
21-Oct-17 18:40 34.383878 -118.557948 340 8441ft 67kts
21-Oct-17 18:41 34.383878 -118.557948 340 8441ft 67kts
21-Oct-17 18:42 34.383878 -118.557948 340 8441ft 67kts
21-Oct-17 18:43 34.383878 -118.557948 340 8441ft 67kts
21-Oct-17 18:44 34.383878 -118.557948 340 8441ft 67kts
21-Oct-17 18:45 34.383878 -118.557948 340 8441ft 67kts
21-Oct-17 18:46 34.383878 -118.557948 340 8441ft 67kts
21-Oct-17 18:47 34.383878 -118.557948 340 8441ft 67kts
21-Oct-17 18:48 34.383878 -118.557948 340 8441ft 67kts
21-Oct-17 18:49 34.383878 -118.557948 340 8441ft 67kts
21-Oct-17 18:50 34.383878 -118.557948 340 8441ft 67kts
21-Oct-17 18:51 34.383878 -118.557948 340 8441ft 67kts
21-Oct-17 18:52 34.383878 -118.557948 340 8441ft 67kts
21-Oct-17 18:53 34.383878 -118.557948 340 8441ft 67kts
21-Oct-17 18:54 34.383878 -118.557948 340 8441ft 67kts
21-Oct-17 18:55 34.383878 -118.557948 340 8441ft 67kts
21-Oct-17 18:56 34.383878 -118.557948 340 8441ft 67kts
21-Oct-17 18:58 34.196853 -118.352677 179 724ft 0kts
21-Oct-17 18:59 34.196853 -118.352678 179 724ft 0kts
21-Oct-17 19:00 34.196848 -118.352600 8 724ft 0kts
21-Oct-17 19:01 34.197080 -118.354780 291 724ft 7kts
21-Oct-17 19:02 34.203931 -118.356868 346 724ft 37kts
21-Oct-17 19:03 34.211866 -118.359466 309 724ft 0kts
21-Oct-17 19:04 34.211866 -118.359466 309 724ft 0kts
21-Oct-17 19:05 34.211869 -118.359470 309 724ft 0kts
21-Oct-17 19:06 34.211869 -118.359471 309 724ft 0kts
21-Oct-17 19:07 34.211870 -118.359471 309 724ft 0kts
21-Oct-17 19:08 34.211870 -118.359471 309 724ft 0kts
21-Oct-17 19:09 34.211870 -118.359472 309 724ft 0kts
21-Oct-17 19:10 34.211885 -118.359494 309 724ft 3kts
21-Oct-17 19:11 34.198504 -118.355717 158 977ft 118kts
21-Oct-17 19:12 34.169120 -118.366497 225 2426ft 131kts
21-Oct-17 19:13 34.141383 -118.403156 226 3511ft 161kts
21-Oct-17 19:14 34.145421 -118.441330 348 4546ft 133kts
21-Oct-17 19:15 34.180252 -118.454252 350 5531ft 127kts
21-Oct-17 19:16 34.212154 -118.465716 350 6479ft 105kts
21-Oct-17 19:17 34.231244 -118.472231 350 6988ft 72kts
21-Oct-17 19:18 34.249277 -118.462634 55 7071ft 79kts
21-Oct-17 19:19 34.258932 -118.438176 54 7943ft 78kts
21-Oct-17 19:20 34.279282 -118.435905 353 8723ft 74kts
21-Oct-17 19:21 34.297194 -118.436825 354 9295ft 79kts
21-Oct-17 19:22 34.324129 -118.438806 354 10050ft 87kts
21-Oct-17 19:23 34.349590 -118.441601 354 10697ft 99kts
21-Oct-17 19:24 34.378692 -118.446541 354 11243ft 111kts
21-Oct-17 19:25 34.398617 -118.431428 48 11673ft 114kts
21-Oct-17 19:26 34.418378 -118.400375 47 12184ft 117kts
21-Oct-17 19:27 34.438323 -118.369476 47 12679ft 115kts
21-Oct-17 19:28 34.457929 -118.338633 47 13041ft 121kts
21-Oct-17 19:29 34.480312 -118.304253 47 13068ft 137kts
21-Oct-17 19:30 34.504742 -118.266888 47 13092ft 144kts
21-Oct-17 19:31 34.530115 -118.228007 47 13113ft 147kts
21-Oct-17 19:32 34.555584 -118.188902 47 13118ft 148kts
21-Oct-17 19:33 34.580808 -118.150130 47 13031ft 153kts
21-Oct-17 19:34 34.607749 -118.110085 47 12983ft 151kts
21-Oct-17 19:35 34.634916 -118.071992 61 12987ft 151kts
21-Oct-17 19:36 34.641395 -118.020696 77 13006ft 155kts
21-Oct-17 19:37 34.647312 -117.969241 77 13007ft 151kts
21-Oct-17 19:38 34.654061 -117.919317 78 13007ft 148kts
21-Oct-17 19:39 34.662537 -117.869868 76 12940ft 153kts
21-Oct-17 19:40 34.670466 -117.818557 76 12986ft 157kts
21-Oct-17 19:41 34.675400 -117.776993 77 12999ft 151kts
21-Oct-17 19:42 34.680666 -117.725598 77 13003ft 155kts
21-Oct-17 19:43 34.688339 -117.673229 68 13005ft 158kts
21-Oct-17 19:44 34.706915 -117.624301 66 12968ft 158kts
21-Oct-17 19:45 34.723682 -117.576418 66 12944ft 156kts
21-Oct-17 19:46 34.737001 -117.525714 66 12945ft 159kts
21-Oct-17 19:47 34.750570 -117.474229 66 12949ft 160kts
21-Oct-17 19:48 34.764227 -117.422472 66 12952ft 160kts
21-Oct-17 19:49 34.777889 -117.370711 66 12948ft 160kts
21-Oct-17 19:50 34.791513 -117.319058 66 12950ft 161kts
21-Oct-17 19:51 34.805275 -117.266893 66 12961ft 160kts
21-Oct-17 19:52 34.818418 -117.216356 66 12978ft 156kts
21-Oct-17 19:53 34.834010 -117.167534 60 12969ft 154kts
21-Oct-17 19:54 34.850503 -117.118658 69 12959ft 159kts
21-Oct-17 19:55 34.856204 -117.064770 80 12960ft 162kts
21-Oct-17 19:56 34.858839 -117.009690 80 12962ft 162kts
21-Oct-17 19:57 34.861941 -116.954902 73 12963ft 160kts
21-Oct-17 19:58 34.872011 -116.902288 70 12975ft 159kts
21-Oct-17 19:59 34.883265 -116.850076 62 12978ft 157kts
21-Oct-17 20:00 34.900796 -116.801359 60 12980ft 157kts
21-Oct-17 20:01 34.916172 -116.751356 70 12981ft 160kts
21-Oct-17 20:02 34.926643 -116.698523 70 12981ft 160kts
21-Oct-17 20:03 34.937056 -116.645825 70 12981ft 160kts
21-Oct-17 20:04 34.946782 -116.591534 71 12782ft 169kts
21-Oct-17 20:05 34.958732 -116.541951 56 13226ft 141kts
21-Oct-17 20:06 34.979683 -116.499917 52 13245ft 149kts
21-Oct-17 20:07 35.002577 -116.455415 52 13034ft 163kts
21-Oct-17 20:08 35.026633 -116.409215 52 12983ft 158kts
21-Oct-17 20:09 35.045440 -116.360615 62 12984ft 159kts
21-Oct-17 20:10 35.061776 -116.310505 62 12984ft 158kts
21-Oct-17 20:11 35.081638 -116.263412 52 12988ft 155kts
21-Oct-17 20:12 35.104760 -116.218826 52 12997ft 155kts
21-Oct-17 20:13 35.127901 -116.174407 52 13001ft 155kts
21-Oct-17 20:14 35.151114 -116.130016 52 13005ft 155kts
21-Oct-17 20:15 35.174538 -116.085529 52 13004ft 155kts
21-Oct-17 20:16 35.197427 -116.040964 56 13005ft 155kts
21-Oct-17 20:17 35.217893 -115.994573 57 13005ft 153kts
21-Oct-17 20:18 35.239523 -115.950092 57 13004ft 151kts
21-Oct-17 20:19 35.262703 -115.906413 57 13002ft 153kts
21-Oct-17 20:20 35.287454 -115.863311 57 12999ft 156kts
21-Oct-17 20:21 35.309231 -115.816522 67 12982ft 162kts
21-Oct-17 20:22 35.331535 -115.764288 66 12639ft 191kts
21-Oct-17 20:23 35.368777 -115.713429 46 12060ft 209kts
21-Oct-17 20:24 35.406887 -115.665208 46 11193ft 188kts
21-Oct-17 20:25 35.441831 -115.619243 47 10293ft 183kts
21-Oct-17 20:26 35.476045 -115.576405 47 9970ft 166kts
21-Oct-17 20:27 35.509272 -115.538317 53 9966ft 163kts
21-Oct-17 20:28 35.542462 -115.500413 43 9991ft 159kts
21-Oct-17 20:29 35.571420 -115.461108 47 9980ft 152kts
21-Oct-17 20:30 35.599222 -115.422705 47 9983ft 149kts
21-Oct-17 20:31 35.623859 -115.381952 57 9984ft 149kts
21-Oct-17 20:32 35.646690 -115.339094 52 9984ft 149kts
21-Oct-17 20:33 35.672096 -115.298100 50 9978ft 154kts
21-Oct-17 20:34 35.700679 -115.259015 52 9998ft 151kts
21-Oct-17 20:35 35.725053 -115.217218 52 10011ft 149kts
21-Oct-17 20:36 35.751898 -115.178108 47 10011ft 149kts
21-Oct-17 20:37 35.780505 -115.141146 48 10007ft 149kts
21-Oct-17 20:38 35.813456 -115.104152 46 9601ft 178kts
21-Oct-17 20:39 35.850704 -115.056278 47 8905ft 195kts
21-Oct-17 20:40 35.886955 -115.006081 46 8194ft 201kts
21-Oct-17 20:41 35.923980 -114.953823 47 7491ft 197kts
21-Oct-17 20:42 35.959043 -114.908521 47 7011ft 165kts
21-Oct-17 20:43 35.989136 -114.872468 47 7008ft 140kts
21-Oct-17 20:44 36.018413 -114.842673 11 6739ft 153kts
21-Oct-17 20:45 36.064379 -114.841804 3 6139ft 170kts
21-Oct-17 20:46 36.113071 -114.836857 3 5480ft 180kts
21-Oct-17 20:47 36.162588 -114.828981 8 5019ft 169kts
21-Oct-17 20:48 36.191913 -114.817314 113 5021ft 140kts
21-Oct-17 20:49 36.159522 -114.812638 192 5020ft 124kts
21-Oct-17 20:50 36.125467 -114.819423 192 5019ft 124kts
21-Oct-17 20:51 36.091461 -114.826178 192 5019ft 123kts
21-Oct-17 20:52 36.067201 -114.847806 270 5025ft 122kts
21-Oct-17 20:53 36.072685 -114.889591 272 5021ft 123kts
21-Oct-17 20:54 36.075975 -114.935783 267 5027ft 146kts
21-Oct-17 20:55 36.074728 -114.981842 266 4725ft 131kts
21-Oct-17 20:56 36.073613 -115.019103 262 3969ft 99kts
21-Oct-17 20:57 36.074156 -115.056445 268 3076ft 109kts
21-Oct-17 20:58 36.073628 -115.092497 268 2581ft 100kts
21-Oct-17 20:59 36.073645 -115.126857 268 2141ft 95kts
21-Oct-17 21:00 36.074189 -115.139721 65 2118ft 0kts
21-Oct-17 21:01 36.074189 -115.139721 65 2118ft 0kts
21-Oct-17 21:02 36.074190 -115.139721 65 2118ft 0kts
21-Oct-17 21:03 36.074190 -115.139720 65 2118ft 0kts
21-Oct-17 21:04 36.074190 -115.139720 65 2118ft 0kts
21-Oct-17 21:05 36.075140 -115.137934 14 2118ft 8kts
21-Oct-17 21:06 36.078123 -115.137972 315 2118ft 0kts

Navigation Log

Ident Type
Flight plan parsing failed, navigation log unavailable